sensor_id;sensor_type;location;lat;lon;timestamp;P1;durP1;ratioP1;P2;durP2;ratioP2
8435;SDS011;4255;48.730;9.156;2022-10-30T00:00:26;11.23;;;5.40;;
8435;SDS011;4255;48.730;9.156;2022-10-30T00:02:52;20.73;;;5.47;;
8435;SDS011;4255;48.730;9.156;2022-10-30T00:05:17;10.47;;;4.90;;
8435;SDS011;4255;48.730;9.156;2022-10-30T00:07:44;9.37;;;4.50;;
8435;SDS011;4255;48.730;9.156;2022-10-30T00:10:11;9.10;;;3.73;;
8435;SDS011;4255;48.730;9.156;2022-10-30T00:12:36;19.73;;;4.90;;
8435;SDS011;4255;48.730;9.156;2022-10-30T00:15:02;8.87;;;3.97;;
8435;SDS011;4255;48.730;9.156;2022-10-30T00:17:29;16.70;;;4.83;;
8435;SDS011;4255;48.730;9.156;2022-10-30T00:19:54;12.30;;;4.77;;
8435;SDS011;4255;48.730;9.156;2022-10-30T00:22:20;9.60;;;5.40;;
8435;SDS011;4255;48.730;9.156;2022-10-30T00:24:46;11.93;;;4.10;;
8435;SDS011;4255;48.730;9.156;2022-10-30T00:27:11;13.63;;;4.57;;
8435;SDS011;4255;48.730;9.156;2022-10-30T00:29:37;11.73;;;5.20;;
8435;SDS011;4255;48.730;9.156;2022-10-30T00:32:02;8.63;;;4.60;;
8435;SDS011;4255;48.730;9.156;2022-10-30T00:34:28;6.60;;;4.47;;
8435;SDS011;4255;48.730;9.156;2022-10-30T00:36:54;14.63;;;5.00;;
8435;SDS011;4255;48.730;9.156;2022-10-30T00:39:19;8.07;;;5.17;;
8435;SDS011;4255;48.730;9.156;2022-10-30T00:41:45;12.87;;;4.90;;
8435;SDS011;4255;48.730;9.156;2022-10-30T00:46:55;13.13;;;5.00;;
8435;SDS011;4255;48.730;9.156;2022-10-30T00:49:21;10.80;;;4.53;;
8435;SDS011;4255;48.730;9.156;2022-10-30T00:51:48;11.73;;;5.60;;
8435;SDS011;4255;48.730;9.156;2022-10-30T00:54:16;5.60;;;4.67;;
8435;SDS011;4255;48.730;9.156;2022-10-30T00:56:43;9.43;;;3.87;;
8435;SDS011;4255;48.730;9.156;2022-10-30T00:59:15;7.67;;;4.60;;
8435;SDS011;4255;48.730;9.156;2022-10-30T01:01:44;9.47;;;4.70;;
8435;SDS011;4255;48.730;9.156;2022-10-30T01:04:12;16.50;;;5.00;;
8435;SDS011;4255;48.730;9.156;2022-10-30T01:06:41;13.40;;;5.30;;
8435;SDS011;4255;48.730;9.156;2022-10-30T01:09:09;12.50;;;4.10;;
8435;SDS011;4255;48.730;9.156;2022-10-30T01:11:35;21.77;;;5.90;;
8435;SDS011;4255;48.730;9.156;2022-10-30T01:14:01;6.73;;;4.40;;
8435;SDS011;4255;48.730;9.156;2022-10-30T01:32:37;9.27;;;4.43;;
8435;SDS011;4255;48.730;9.156;2022-10-30T01:38:43;8.40;;;3.90;;
8435;SDS011;4255;48.730;9.156;2022-10-30T01:41:31;12.00;;;4.50;;
8435;SDS011;4255;48.730;9.156;2022-10-30T01:43:58;11.53;;;5.10;;
8435;SDS011;4255;48.730;9.156;2022-10-30T01:57:59;9.87;;;4.57;;
8435;SDS011;4255;48.730;9.156;2022-10-30T02:00:47;12.30;;;5.70;;
8435;SDS011;4255;48.730;9.156;2022-10-30T02:03:16;12.23;;;5.90;;
8435;SDS011;4255;48.730;9.156;2022-10-30T02:05:43;12.83;;;7.07;;
8435;SDS011;4255;48.730;9.156;2022-10-30T02:08:12;10.97;;;6.13;;
8435;SDS011;4255;48.730;9.156;2022-10-30T02:10:37;9.30;;;4.97;;
8435;SDS011;4255;48.730;9.156;2022-10-30T02:13:05;13.40;;;6.00;;
8435;SDS011;4255;48.730;9.156;2022-10-30T02:15:30;9.43;;;4.53;;
8435;SDS011;4255;48.730;9.156;2022-10-30T02:17:56;9.63;;;6.23;;
8435;SDS011;4255;48.730;9.156;2022-10-30T02:20:22;11.43;;;6.47;;
8435;SDS011;4255;48.730;9.156;2022-10-30T02:22:49;10.13;;;7.13;;
8435;SDS011;4255;48.730;9.156;2022-10-30T02:25:15;12.47;;;7.57;;
8435;SDS011;4255;48.730;9.156;2022-10-30T02:27:41;23.10;;;7.50;;
8435;SDS011;4255;48.730;9.156;2022-10-30T02:30:07;14.67;;;6.70;;
8435;SDS011;4255;48.730;9.156;2022-10-30T02:32:33;17.07;;;7.43;;
8435;SDS011;4255;48.730;9.156;2022-10-30T02:34:59;10.83;;;6.30;;
8435;SDS011;4255;48.730;9.156;2022-10-30T02:37:24;10.80;;;6.90;;
8435;SDS011;4255;48.730;9.156;2022-10-30T02:39:51;14.30;;;6.80;;
8435;SDS011;4255;48.730;9.156;2022-10-30T02:42:16;15.13;;;8.20;;
8435;SDS011;4255;48.730;9.156;2022-10-30T02:44:42;14.10;;;7.37;;
8435;SDS011;4255;48.730;9.156;2022-10-30T02:47:08;9.30;;;6.27;;
8435;SDS011;4255;48.730;9.156;2022-10-30T02:49:33;15.10;;;6.83;;
8435;SDS011;4255;48.730;9.156;2022-10-30T02:51:59;17.50;;;7.47;;
8435;SDS011;4255;48.730;9.156;2022-10-30T02:54:24;13.53;;;6.23;;
8435;SDS011;4255;48.730;9.156;2022-10-30T02:56:50;11.17;;;6.80;;
8435;SDS011;4255;48.730;9.156;2022-10-30T02:59:16;13.47;;;7.10;;
8435;SDS011;4255;48.730;9.156;2022-10-30T03:01:41;21.00;;;7.13;;
8435;SDS011;4255;48.730;9.156;2022-10-30T03:04:07;15.10;;;7.50;;
8435;SDS011;4255;48.730;9.156;2022-10-30T03:06:33;11.30;;;7.10;;
8435;SDS011;4255;48.730;9.156;2022-10-30T03:08:59;21.33;;;8.10;;
8435;SDS011;4255;48.730;9.156;2022-10-30T03:11:25;16.87;;;7.80;;
8435;SDS011;4255;48.730;9.156;2022-10-30T03:13:51;12.67;;;7.67;;
8435;SDS011;4255;48.730;9.156;2022-10-30T03:16:19;17.10;;;8.13;;
8435;SDS011;4255;48.730;9.156;2022-10-30T03:18:48;10.23;;;6.80;;
8435;SDS011;4255;48.730;9.156;2022-10-30T03:21:17;11.67;;;7.30;;
8435;SDS011;4255;48.730;9.156;2022-10-30T03:23:44;14.97;;;9.70;;
8435;SDS011;4255;48.730;9.156;2022-10-30T03:26:10;13.80;;;7.70;;
8435;SDS011;4255;48.730;9.156;2022-10-30T03:28:35;15.77;;;8.50;;
8435;SDS011;4255;48.730;9.156;2022-10-30T03:31:05;22.63;;;8.93;;
8435;SDS011;4255;48.730;9.156;2022-10-30T03:33:33;18.00;;;7.57;;
8435;SDS011;4255;48.730;9.156;2022-10-30T03:35:59;15.57;;;7.50;;
8435;SDS011;4255;48.730;9.156;2022-10-30T03:38:25;12.20;;;7.53;;
8435;SDS011;4255;48.730;9.156;2022-10-30T03:40:51;9.87;;;7.70;;
8435;SDS011;4255;48.730;9.156;2022-10-30T03:43:17;10.43;;;7.73;;
8435;SDS011;4255;48.730;9.156;2022-10-30T03:45:51;15.67;;;7.83;;
8435;SDS011;4255;48.730;9.156;2022-10-30T03:48:19;10.83;;;7.30;;
8435;SDS011;4255;48.730;9.156;2022-10-30T03:50:46;14.37;;;7.70;;
8435;SDS011;4255;48.730;9.156;2022-10-30T03:53:12;12.03;;;7.23;;
8435;SDS011;4255;48.730;9.156;2022-10-30T03:55:38;20.97;;;8.23;;
8435;SDS011;4255;48.730;9.156;2022-10-30T03:58:05;18.43;;;8.47;;
8435;SDS011;4255;48.730;9.156;2022-10-30T04:00:32;19.20;;;8.30;;
8435;SDS011;4255;48.730;9.156;2022-10-30T04:02:59;11.43;;;7.20;;
8435;SDS011;4255;48.730;9.156;2022-10-30T04:05:25;13.10;;;7.50;;
8435;SDS011;4255;48.730;9.156;2022-10-30T04:07:58;19.03;;;8.30;;
8435;SDS011;4255;48.730;9.156;2022-10-30T04:10:26;18.67;;;8.10;;
8435;SDS011;4255;48.730;9.156;2022-10-30T04:12:54;11.30;;;7.23;;
8435;SDS011;4255;48.730;9.156;2022-10-30T04:15:27;18.10;;;8.87;;
8435;SDS011;4255;48.730;9.156;2022-10-30T04:17:53;17.87;;;8.77;;
8435;SDS011;4255;48.730;9.156;2022-10-30T04:20:19;18.20;;;9.00;;
8435;SDS011;4255;48.730;9.156;2022-10-30T04:22:46;17.10;;;9.67;;
8435;SDS011;4255;48.730;9.156;2022-10-30T04:25:12;17.30;;;9.30;;
8435;SDS011;4255;48.730;9.156;2022-10-30T04:27:38;15.57;;;8.63;;
8435;SDS011;4255;48.730;9.156;2022-10-30T04:30:05;16.40;;;8.30;;
8435;SDS011;4255;48.730;9.156;2022-10-30T04:32:31;16.63;;;8.73;;
8435;SDS011;4255;48.730;9.156;2022-10-30T04:34:57;31.67;;;9.30;;
8435;SDS011;4255;48.730;9.156;2022-10-30T04:37:22;18.77;;;8.97;;
8435;SDS011;4255;48.730;9.156;2022-10-30T04:39:48;11.70;;;8.80;;
8435;SDS011;4255;48.730;9.156;2022-10-30T04:42:14;13.03;;;8.43;;
8435;SDS011;4255;48.730;9.156;2022-10-30T04:44:40;18.67;;;9.30;;
8435;SDS011;4255;48.730;9.156;2022-10-30T04:47:05;19.83;;;9.10;;
8435;SDS011;4255;48.730;9.156;2022-10-30T04:49:31;16.30;;;9.50;;
8435;SDS011;4255;48.730;9.156;2022-10-30T04:51:56;19.37;;;8.43;;
8435;SDS011;4255;48.730;9.156;2022-10-30T04:54:22;14.77;;;9.67;;
8435;SDS011;4255;48.730;9.156;2022-10-30T04:56:48;14.00;;;8.80;;
8435;SDS011;4255;48.730;9.156;2022-10-30T04:59:13;12.70;;;9.20;;
8435;SDS011;4255;48.730;9.156;2022-10-30T05:01:39;14.87;;;9.10;;
8435;SDS011;4255;48.730;9.156;2022-10-30T05:04:05;11.93;;;8.77;;
8435;SDS011;4255;48.730;9.156;2022-10-30T05:06:30;13.43;;;9.50;;
8435;SDS011;4255;48.730;9.156;2022-10-30T05:08:57;18.07;;;10.80;;
8435;SDS011;4255;48.730;9.156;2022-10-30T05:11:22;18.33;;;9.60;;
8435;SDS011;4255;48.730;9.156;2022-10-30T05:13:48;14.37;;;10.20;;
8435;SDS011;4255;48.730;9.156;2022-10-30T05:16:14;13.60;;;8.30;;
8435;SDS011;4255;48.730;9.156;2022-10-30T05:18:39;12.40;;;9.00;;
8435;SDS011;4255;48.730;9.156;2022-10-30T05:21:05;15.77;;;9.50;;
8435;SDS011;4255;48.730;9.156;2022-10-30T05:23:31;19.20;;;10.07;;
8435;SDS011;4255;48.730;9.156;2022-10-30T05:25:58;15.67;;;9.77;;
8435;SDS011;4255;48.730;9.156;2022-10-30T05:28:24;14.97;;;10.80;;
8435;SDS011;4255;48.730;9.156;2022-10-30T05:30:53;13.87;;;9.17;;
8435;SDS011;4255;48.730;9.156;2022-10-30T05:33:19;16.03;;;9.40;;
8435;SDS011;4255;48.730;9.156;2022-10-30T05:35:45;14.43;;;9.77;;
8435;SDS011;4255;48.730;9.156;2022-10-30T05:38:11;16.33;;;9.50;;
8435;SDS011;4255;48.730;9.156;2022-10-30T05:40:37;14.20;;;8.40;;
8435;SDS011;4255;48.730;9.156;2022-10-30T05:43:03;18.20;;;8.83;;
8435;SDS011;4255;48.730;9.156;2022-10-30T05:45:29;22.50;;;9.30;;
8435;SDS011;4255;48.730;9.156;2022-10-30T05:48:02;14.60;;;10.00;;
8435;SDS011;4255;48.730;9.156;2022-10-30T05:50:30;25.33;;;12.07;;
8435;SDS011;4255;48.730;9.156;2022-10-30T05:52:56;17.60;;;9.53;;
8435;SDS011;4255;48.730;9.156;2022-10-30T05:55:23;17.37;;;9.33;;
8435;SDS011;4255;48.730;9.156;2022-10-30T05:57:49;22.13;;;10.03;;
8435;SDS011;4255;48.730;9.156;2022-10-30T06:00:19;12.10;;;8.63;;
8435;SDS011;4255;48.730;9.156;2022-10-30T06:02:44;19.07;;;9.50;;
8435;SDS011;4255;48.730;9.156;2022-10-30T06:05:10;16.80;;;9.47;;
8435;SDS011;4255;48.730;9.156;2022-10-30T06:07:35;15.67;;;8.80;;
8435;SDS011;4255;48.730;9.156;2022-10-30T06:10:01;15.80;;;9.20;;
8435;SDS011;4255;48.730;9.156;2022-10-30T06:12:27;15.23;;;8.33;;
8435;SDS011;4255;48.730;9.156;2022-10-30T06:14:52;16.97;;;8.20;;
8435;SDS011;4255;48.730;9.156;2022-10-30T06:17:18;13.73;;;9.63;;
8435;SDS011;4255;48.730;9.156;2022-10-30T06:19:44;13.90;;;9.40;;
8435;SDS011;4255;48.730;9.156;2022-10-30T06:22:09;15.80;;;9.27;;
8435;SDS011;4255;48.730;9.156;2022-10-30T06:24:35;14.80;;;9.47;;
8435;SDS011;4255;48.730;9.156;2022-10-30T06:27:00;17.40;;;11.03;;
8435;SDS011;4255;48.730;9.156;2022-10-30T06:29:26;17.40;;;10.37;;
8435;SDS011;4255;48.730;9.156;2022-10-30T06:31:51;18.33;;;9.50;;
8435;SDS011;4255;48.730;9.156;2022-10-30T06:34:17;19.27;;;9.60;;
8435;SDS011;4255;48.730;9.156;2022-10-30T06:36:43;17.83;;;10.17;;
8435;SDS011;4255;48.730;9.156;2022-10-30T06:39:08;19.27;;;8.80;;
8435;SDS011;4255;48.730;9.156;2022-10-30T06:41:34;12.77;;;8.43;;
8435;SDS011;4255;48.730;9.156;2022-10-30T06:43:59;13.00;;;8.70;;
8435;SDS011;4255;48.730;9.156;2022-10-30T06:46:25;22.77;;;8.30;;
8435;SDS011;4255;48.730;9.156;2022-10-30T06:48:51;16.00;;;9.93;;
8435;SDS011;4255;48.730;9.156;2022-10-30T06:51:16;17.43;;;9.50;;
8435;SDS011;4255;48.730;9.156;2022-10-30T06:53:42;15.73;;;8.50;;
8435;SDS011;4255;48.730;9.156;2022-10-30T06:56:08;21.27;;;8.83;;
8435;SDS011;4255;48.730;9.156;2022-10-30T06:58:33;16.17;;;8.50;;
8435;SDS011;4255;48.730;9.156;2022-10-30T07:01:03;14.43;;;8.80;;
8435;SDS011;4255;48.730;9.156;2022-10-30T07:03:30;15.30;;;7.60;;
8435;SDS011;4255;48.730;9.156;2022-10-30T07:05:56;20.47;;;11.13;;
8435;SDS011;4255;48.730;9.156;2022-10-30T07:08:21;9.70;;;7.70;;
8435;SDS011;4255;48.730;9.156;2022-10-30T07:10:47;10.80;;;7.90;;
8435;SDS011;4255;48.730;9.156;2022-10-30T07:13:13;13.93;;;6.73;;
8435;SDS011;4255;48.730;9.156;2022-10-30T07:15:38;14.93;;;6.80;;
8435;SDS011;4255;48.730;9.156;2022-10-30T07:18:04;22.30;;;8.77;;
8435;SDS011;4255;48.730;9.156;2022-10-30T07:20:31;23.60;;;8.00;;
8435;SDS011;4255;48.730;9.156;2022-10-30T07:22:58;33.33;;;9.93;;
8435;SDS011;4255;48.730;9.156;2022-10-30T07:25:24;23.57;;;8.60;;
8435;SDS011;4255;48.730;9.156;2022-10-30T07:27:50;14.30;;;7.60;;
8435;SDS011;4255;48.730;9.156;2022-10-30T07:30:18;12.97;;;7.27;;
8435;SDS011;4255;48.730;9.156;2022-10-30T07:32:45;19.17;;;8.93;;
8435;SDS011;4255;48.730;9.156;2022-10-30T07:35:11;21.10;;;8.33;;
8435;SDS011;4255;48.730;9.156;2022-10-30T07:37:38;12.07;;;7.03;;
8435;SDS011;4255;48.730;9.156;2022-10-30T07:40:05;17.80;;;8.00;;
8435;SDS011;4255;48.730;9.156;2022-10-30T07:42:31;11.50;;;8.00;;
8435;SDS011;4255;48.730;9.156;2022-10-30T07:44:57;12.40;;;6.90;;
8435;SDS011;4255;48.730;9.156;2022-10-30T07:47:23;12.20;;;6.17;;
8435;SDS011;4255;48.730;9.156;2022-10-30T07:49:49;9.83;;;6.13;;
8435;SDS011;4255;48.730;9.156;2022-10-30T07:52:15;13.57;;;7.77;;
8435;SDS011;4255;48.730;9.156;2022-10-30T07:54:40;11.43;;;7.07;;
8435;SDS011;4255;48.730;9.156;2022-10-30T07:57:06;12.27;;;7.10;;
8435;SDS011;4255;48.730;9.156;2022-10-30T07:59:31;23.00;;;7.60;;
8435;SDS011;4255;48.730;9.156;2022-10-30T08:01:57;13.77;;;7.10;;
8435;SDS011;4255;48.730;9.156;2022-10-30T08:04:24;10.70;;;7.70;;
8435;SDS011;4255;48.730;9.156;2022-10-30T08:06:50;12.40;;;8.50;;
8435;SDS011;4255;48.730;9.156;2022-10-30T08:09:16;15.00;;;8.23;;
8435;SDS011;4255;48.730;9.156;2022-10-30T08:11:42;17.03;;;8.60;;
8435;SDS011;4255;48.730;9.156;2022-10-30T08:14:07;10.50;;;7.57;;
8435;SDS011;4255;48.730;9.156;2022-10-30T08:16:33;16.90;;;8.27;;
8435;SDS011;4255;48.730;9.156;2022-10-30T08:18:59;13.90;;;7.50;;
8435;SDS011;4255;48.730;9.156;2022-10-30T08:21:24;16.77;;;7.47;;
8435;SDS011;4255;48.730;9.156;2022-10-30T08:23:50;14.23;;;7.60;;
8435;SDS011;4255;48.730;9.156;2022-10-30T08:26:16;13.87;;;7.77;;
8435;SDS011;4255;48.730;9.156;2022-10-30T08:28:41;13.17;;;7.83;;
8435;SDS011;4255;48.730;9.156;2022-10-30T08:31:07;7.83;;;6.50;;
8435;SDS011;4255;48.730;9.156;2022-10-30T08:33:32;13.40;;;6.87;;
8435;SDS011;4255;48.730;9.156;2022-10-30T08:35:59;15.97;;;6.97;;
8435;SDS011;4255;48.730;9.156;2022-10-30T08:38:26;11.77;;;6.53;;
8435;SDS011;4255;48.730;9.156;2022-10-30T08:40:53;10.10;;;6.17;;
8435;SDS011;4255;48.730;9.156;2022-10-30T08:43:19;8.10;;;5.93;;
8435;SDS011;4255;48.730;9.156;2022-10-30T08:45:44;12.10;;;5.57;;
8435;SDS011;4255;48.730;9.156;2022-10-30T08:48:12;12.57;;;5.33;;
8435;SDS011;4255;48.730;9.156;2022-10-30T08:50:40;8.97;;;5.60;;
8435;SDS011;4255;48.730;9.156;2022-10-30T08:53:07;13.00;;;6.50;;
8435;SDS011;4255;48.730;9.156;2022-10-30T08:55:37;11.77;;;5.80;;
8435;SDS011;4255;48.730;9.156;2022-10-30T08:58:03;17.50;;;6.57;;
8435;SDS011;4255;48.730;9.156;2022-10-30T09:00:29;10.17;;;5.10;;
8435;SDS011;4255;48.730;9.156;2022-10-30T09:02:55;13.10;;;4.93;;
8435;SDS011;4255;48.730;9.156;2022-10-30T09:05:21;15.53;;;8.73;;
8435;SDS011;4255;48.730;9.156;2022-10-30T09:07:46;10.47;;;7.70;;
8435;SDS011;4255;48.730;9.156;2022-10-30T09:10:12;9.10;;;5.30;;
8435;SDS011;4255;48.730;9.156;2022-10-30T09:12:40;11.83;;;5.80;;
8435;SDS011;4255;48.730;9.156;2022-10-30T09:15:06;8.03;;;4.93;;
8435;SDS011;4255;48.730;9.156;2022-10-30T09:17:32;12.50;;;8.80;;
8435;SDS011;4255;48.730;9.156;2022-10-30T09:19:57;10.50;;;6.10;;
8435;SDS011;4255;48.730;9.156;2022-10-30T09:22:23;13.63;;;5.83;;
8435;SDS011;4255;48.730;9.156;2022-10-30T09:24:48;11.47;;;5.10;;
8435;SDS011;4255;48.730;9.156;2022-10-30T09:27:14;9.00;;;4.80;;
8435;SDS011;4255;48.730;9.156;2022-10-30T09:29:40;7.43;;;4.90;;
8435;SDS011;4255;48.730;9.156;2022-10-30T09:32:05;7.87;;;5.70;;
8435;SDS011;4255;48.730;9.156;2022-10-30T09:34:34;8.17;;;5.23;;
8435;SDS011;4255;48.730;9.156;2022-10-30T09:37:00;10.63;;;6.53;;
8435;SDS011;4255;48.730;9.156;2022-10-30T09:39:25;17.13;;;7.30;;
8435;SDS011;4255;48.730;9.156;2022-10-30T09:50:02;8.60;;;6.23;;
8435;SDS011;4255;48.730;9.156;2022-10-30T09:55:31;6.83;;;5.57;;
8435;SDS011;4255;48.730;9.156;2022-10-30T10:06:31;16.83;;;5.83;;
8435;SDS011;4255;48.730;9.156;2022-10-30T10:09:07;9.33;;;5.23;;
8435;SDS011;4255;48.730;9.156;2022-10-30T10:11:39;10.40;;;5.57;;
8435;SDS011;4255;48.730;9.156;2022-10-30T10:16:56;11.93;;;5.23;;
8435;SDS011;4255;48.730;9.156;2022-10-30T10:19:30;9.23;;;5.03;;
8435;SDS011;4255;48.730;9.156;2022-10-30T10:22:00;8.77;;;5.37;;
8435;SDS011;4255;48.730;9.156;2022-10-30T10:32:29;12.57;;;6.07;;
8435;SDS011;4255;48.730;9.156;2022-10-30T10:38:49;20.87;;;8.07;;
8435;SDS011;4255;48.730;9.156;2022-10-30T10:41:10;9.10;;;5.33;;
8435;SDS011;4255;48.730;9.156;2022-10-30T10:47:08;8.80;;;4.97;;
8435;SDS011;4255;48.730;9.156;2022-10-30T10:52:34;6.27;;;4.87;;
8435;SDS011;4255;48.730;9.156;2022-10-30T10:55:04;10.87;;;5.27;;
8435;SDS011;4255;48.730;9.156;2022-10-30T10:57:39;7.97;;;4.30;;
8435;SDS011;4255;48.730;9.156;2022-10-30T11:00:07;13.87;;;4.30;;
8435;SDS011;4255;48.730;9.156;2022-10-30T11:07:57;9.13;;;4.33;;
8435;SDS011;4255;48.730;9.156;2022-10-30T11:10:27;10.20;;;5.37;;
8435;SDS011;4255;48.730;9.156;2022-10-30T11:12:53;7.00;;;4.20;;
8435;SDS011;4255;48.730;9.156;2022-10-30T11:15:22;14.43;;;5.10;;
8435;SDS011;4255;48.730;9.156;2022-10-30T11:18:12;9.53;;;4.80;;
8435;SDS011;4255;48.730;9.156;2022-10-30T11:26:26;8.00;;;4.10;;
8435;SDS011;4255;48.730;9.156;2022-10-30T11:29:00;11.40;;;4.80;;
8435;SDS011;4255;48.730;9.156;2022-10-30T11:31:57;8.07;;;4.70;;
8435;SDS011;4255;48.730;9.156;2022-10-30T11:34:33;6.37;;;4.70;;
8435;SDS011;4255;48.730;9.156;2022-10-30T11:37:00;9.40;;;4.37;;
8435;SDS011;4255;48.730;9.156;2022-10-30T11:39:31;5.33;;;4.30;;
8435;SDS011;4255;48.730;9.156;2022-10-30T11:44:36;6.90;;;4.20;;
8435;SDS011;4255;48.730;9.156;2022-10-30T11:47:09;15.50;;;4.80;;
8435;SDS011;4255;48.730;9.156;2022-10-30T11:52:22;13.03;;;6.23;;
8435;SDS011;4255;48.730;9.156;2022-10-30T11:54:54;8.10;;;4.57;;
8435;SDS011;4255;48.730;9.156;2022-10-30T11:57:34;12.10;;;5.30;;
8435;SDS011;4255;48.730;9.156;2022-10-30T12:00:07;9.90;;;5.70;;
8435;SDS011;4255;48.730;9.156;2022-10-30T12:02:49;11.67;;;5.60;;
8435;SDS011;4255;48.730;9.156;2022-10-30T12:08:11;10.27;;;6.00;;
8435;SDS011;4255;48.730;9.156;2022-10-30T12:10:44;13.17;;;5.67;;
8435;SDS011;4255;48.730;9.156;2022-10-30T12:13:17;7.07;;;4.97;;
8435;SDS011;4255;48.730;9.156;2022-10-30T12:15:44;11.20;;;5.30;;
8435;SDS011;4255;48.730;9.156;2022-10-30T12:18:16;14.13;;;5.43;;
8435;SDS011;4255;48.730;9.156;2022-10-30T12:20:50;9.33;;;6.07;;
8435;SDS011;4255;48.730;9.156;2022-10-30T12:23:19;8.93;;;6.30;;
8435;SDS011;4255;48.730;9.156;2022-10-30T12:25:50;12.27;;;5.70;;
8435;SDS011;4255;48.730;9.156;2022-10-30T12:28:22;14.17;;;8.53;;
8435;SDS011;4255;48.730;9.156;2022-10-30T12:34:02;13.40;;;5.97;;
8435;SDS011;4255;48.730;9.156;2022-10-30T12:36:32;6.90;;;4.63;;
8435;SDS011;4255;48.730;9.156;2022-10-30T12:42:14;9.70;;;4.80;;
8435;SDS011;4255;48.730;9.156;2022-10-30T12:47:47;10.83;;;5.70;;
8435;SDS011;4255;48.730;9.156;2022-10-30T12:50:34;10.83;;;4.40;;
8435;SDS011;4255;48.730;9.156;2022-10-30T12:55:50;7.67;;;5.23;;
8435;SDS011;4255;48.730;9.156;2022-10-30T13:01:23;10.23;;;4.83;;
8435;SDS011;4255;48.730;9.156;2022-10-30T13:04:07;7.70;;;5.00;;
8435;SDS011;4255;48.730;9.156;2022-10-30T13:06:37;6.63;;;4.03;;
8435;SDS011;4255;48.730;9.156;2022-10-30T13:09:19;6.67;;;4.60;;
8435;SDS011;4255;48.730;9.156;2022-10-30T13:11:50;14.20;;;4.87;;
8435;SDS011;4255;48.730;9.156;2022-10-30T13:14:26;12.13;;;4.03;;
8435;SDS011;4255;48.730;9.156;2022-10-30T13:17:13;8.90;;;4.40;;
8435;SDS011;4255;48.730;9.156;2022-10-30T13:19:39;6.10;;;3.90;;
8435;SDS011;4255;48.730;9.156;2022-10-30T13:46:34;7.23;;;3.90;;
8435;SDS011;4255;48.730;9.156;2022-10-30T13:52:06;6.97;;;3.77;;
8435;SDS011;4255;48.730;9.156;2022-10-30T13:54:43;8.77;;;4.03;;
8435;SDS011;4255;48.730;9.156;2022-10-30T13:57:25;8.70;;;3.40;;
8435;SDS011;4255;48.730;9.156;2022-10-30T14:00:15;5.90;;;3.20;;
8435;SDS011;4255;48.730;9.156;2022-10-30T14:08:09;4.33;;;2.97;;
8435;SDS011;4255;48.730;9.156;2022-10-30T14:10:57;8.83;;;3.37;;
8435;SDS011;4255;48.730;9.156;2022-10-30T14:15:54;7.40;;;3.97;;
8435;SDS011;4255;48.730;9.156;2022-10-30T14:18:24;9.20;;;4.40;;
8435;SDS011;4255;48.730;9.156;2022-10-30T14:20:52;6.80;;;5.00;;
8435;SDS011;4255;48.730;9.156;2022-10-30T14:23:35;10.40;;;4.43;;
8435;SDS011;4255;48.730;9.156;2022-10-30T14:28:27;12.50;;;5.80;;
8435;SDS011;4255;48.730;9.156;2022-10-30T14:31:14;6.73;;;3.90;;
8435;SDS011;4255;48.730;9.156;2022-10-30T14:33:43;8.57;;;3.90;;
8435;SDS011;4255;48.730;9.156;2022-10-30T15:00:52;10.47;;;5.20;;
8435;SDS011;4255;48.730;9.156;2022-10-30T15:03:46;13.37;;;5.27;;
8435;SDS011;4255;48.730;9.156;2022-10-30T15:12:53;7.93;;;5.10;;
8435;SDS011;4255;48.730;9.156;2022-10-30T15:15:23;6.70;;;5.10;;
8435;SDS011;4255;48.730;9.156;2022-10-30T15:17:52;19.20;;;7.67;;
8435;SDS011;4255;48.730;9.156;2022-10-30T15:22:52;19.43;;;11.57;;
8435;SDS011;4255;48.730;9.156;2022-10-30T15:25:21;12.57;;;8.70;;
8435;SDS011;4255;48.730;9.156;2022-10-30T15:27:52;13.37;;;7.30;;
8435;SDS011;4255;48.730;9.156;2022-10-30T15:30:20;12.50;;;7.70;;
8435;SDS011;4255;48.730;9.156;2022-10-30T15:32:48;10.87;;;8.13;;
8435;SDS011;4255;48.730;9.156;2022-10-30T15:38:06;14.40;;;8.20;;
8435;SDS011;4255;48.730;9.156;2022-10-30T15:40:34;42.43;;;28.97;;
8435;SDS011;4255;48.730;9.156;2022-10-30T15:43:01;23.50;;;17.70;;
8435;SDS011;4255;48.730;9.156;2022-10-30T15:45:35;25.60;;;15.73;;
8435;SDS011;4255;48.730;9.156;2022-10-30T15:51:14;11.37;;;7.37;;
8435;SDS011;4255;48.730;9.156;2022-10-30T15:53:58;11.57;;;7.03;;
8435;SDS011;4255;48.730;9.156;2022-10-30T15:56:31;19.57;;;9.10;;
8435;SDS011;4255;48.730;9.156;2022-10-30T15:59:02;14.93;;;7.60;;
8435;SDS011;4255;48.730;9.156;2022-10-30T16:01:44;14.87;;;8.97;;
8435;SDS011;4255;48.730;9.156;2022-10-30T16:06:39;21.23;;;9.23;;
8435;SDS011;4255;48.730;9.156;2022-10-30T16:09:12;11.40;;;8.13;;
8435;SDS011;4255;48.730;9.156;2022-10-30T16:11:38;14.67;;;8.23;;
8435;SDS011;4255;48.730;9.156;2022-10-30T16:14:05;16.57;;;9.70;;
8435;SDS011;4255;48.730;9.156;2022-10-30T16:16:33;20.63;;;9.33;;
8435;SDS011;4255;48.730;9.156;2022-10-30T16:18:59;19.87;;;11.60;;
8435;SDS011;4255;48.730;9.156;2022-10-30T16:21:27;18.30;;;10.27;;
8435;SDS011;4255;48.730;9.156;2022-10-30T16:23:59;20.40;;;13.40;;
8435;SDS011;4255;48.730;9.156;2022-10-30T16:26:28;19.03;;;12.20;;
8435;SDS011;4255;48.730;9.156;2022-10-30T16:28:58;52.03;;;32.77;;
8435;SDS011;4255;48.730;9.156;2022-10-30T16:31:42;34.40;;;19.83;;
8435;SDS011;4255;48.730;9.156;2022-10-30T16:34:24;51.57;;;32.07;;
8435;SDS011;4255;48.730;9.156;2022-10-30T16:36:55;29.67;;;15.53;;
8435;SDS011;4255;48.730;9.156;2022-10-30T16:39:22;18.30;;;12.60;;
8435;SDS011;4255;48.730;9.156;2022-10-30T16:41:50;17.77;;;11.10;;
8435;SDS011;4255;48.730;9.156;2022-10-30T16:44:24;32.53;;;21.80;;
8435;SDS011;4255;48.730;9.156;2022-10-30T16:46:53;45.77;;;28.23;;
8435;SDS011;4255;48.730;9.156;2022-10-30T16:49:28;24.63;;;15.97;;
8435;SDS011;4255;48.730;9.156;2022-10-30T16:52:01;32.37;;;21.57;;
8435;SDS011;4255;48.730;9.156;2022-10-30T16:54:34;25.80;;;16.33;;
8435;SDS011;4255;48.730;9.156;2022-10-30T16:57:03;62.70;;;40.57;;
8435;SDS011;4255;48.730;9.156;2022-10-30T16:59:41;18.07;;;12.13;;
8435;SDS011;4255;48.730;9.156;2022-10-30T17:02:18;15.07;;;10.00;;
8435;SDS011;4255;48.730;9.156;2022-10-30T17:04:46;25.70;;;9.60;;
8435;SDS011;4255;48.730;9.156;2022-10-30T17:07:17;16.13;;;9.70;;
8435;SDS011;4255;48.730;9.156;2022-10-30T17:09:48;19.70;;;8.37;;
8435;SDS011;4255;48.730;9.156;2022-10-30T17:22:29;18.33;;;11.57;;
8435;SDS011;4255;48.730;9.156;2022-10-30T17:24:56;14.97;;;8.47;;
8435;SDS011;4255;48.730;9.156;2022-10-30T17:29:53;16.43;;;9.63;;
8435;SDS011;4255;48.730;9.156;2022-10-30T17:32:23;17.10;;;9.93;;
8435;SDS011;4255;48.730;9.156;2022-10-30T17:35:13;16.93;;;8.70;;
8435;SDS011;4255;48.730;9.156;2022-10-30T17:37:40;18.07;;;10.70;;
8435;SDS011;4255;48.730;9.156;2022-10-30T17:40:06;17.50;;;11.70;;
8435;SDS011;4255;48.730;9.156;2022-10-30T17:42:33;17.10;;;12.40;;
8435;SDS011;4255;48.730;9.156;2022-10-30T17:44:58;19.10;;;13.50;;
8435;SDS011;4255;48.730;9.156;2022-10-30T17:47:24;23.83;;;11.70;;
8435;SDS011;4255;48.730;9.156;2022-10-30T17:49:50;17.10;;;10.73;;
8435;SDS011;4255;48.730;9.156;2022-10-30T17:52:16;13.30;;;10.77;;
8435;SDS011;4255;48.730;9.156;2022-10-30T17:54:45;28.60;;;17.67;;
8435;SDS011;4255;48.730;9.156;2022-10-30T17:57:11;23.63;;;14.83;;
8435;SDS011;4255;48.730;9.156;2022-10-30T17:59:38;18.60;;;12.10;;
8435;SDS011;4255;48.730;9.156;2022-10-30T18:02:11;23.97;;;13.50;;
8435;SDS011;4255;48.730;9.156;2022-10-30T18:04:38;25.60;;;15.77;;
8435;SDS011;4255;48.730;9.156;2022-10-30T18:07:06;19.97;;;15.57;;
8435;SDS011;4255;48.730;9.156;2022-10-30T18:09:36;17.33;;;11.57;;
8435;SDS011;4255;48.730;9.156;2022-10-30T18:12:03;15.37;;;11.10;;
8435;SDS011;4255;48.730;9.156;2022-10-30T18:14:29;24.00;;;15.20;;
8435;SDS011;4255;48.730;9.156;2022-10-30T18:16:55;22.93;;;15.27;;
8435;SDS011;4255;48.730;9.156;2022-10-30T18:19:21;23.17;;;13.90;;
8435;SDS011;4255;48.730;9.156;2022-10-30T18:21:46;16.27;;;12.50;;
8435;SDS011;4255;48.730;9.156;2022-10-30T18:24:15;22.33;;;13.67;;
8435;SDS011;4255;48.730;9.156;2022-10-30T18:26:42;16.57;;;12.63;;
8435;SDS011;4255;48.730;9.156;2022-10-30T18:29:09;19.13;;;12.47;;
8435;SDS011;4255;48.730;9.156;2022-10-30T18:31:35;23.53;;;13.70;;